Time;durP1;ratioP1;P1;durP2;ratioP2;P2;SDS_P1;SDS_P2;PMS_P1;PMS_P2;Temp;Humidity;BMP_temperature;BMP_pressure;BME280_temperature;BME280_humidity;BME280_pressure;Samples;Min_cycle;Max_cycle;Signal;HPM_P1;HPM_P2
2021/05/19 00:00:13;;;;;;;14.30;7.97;;;4.70;99.90;;;;;;4974868;28;20233;-76
2021/05/19 00:02:40;;;;;;;12.80;7.40;;;4.60;99.90;;;;;;4966412;28;20382;-77
2021/05/19 00:05:07;;;;;;;14.43;7.87;;;4.60;99.90;;;;;;4958395;28;20238;-76
2021/05/19 00:07:34;;;;;;;14.17;7.60;;;4.60;99.90;;;;;;4965653;28;20327;-76
2021/05/19 00:10:00;;;;;;;11.67;6.80;;;4.50;99.90;;;;;;4957733;28;20288;-77
2021/05/19 00:12:27;;;;;;;11.17;6.27;;;4.40;99.90;;;;;;4965122;28;20324;-76
2021/05/19 00:14:53;;;;;;;10.27;6.17;;;4.30;99.90;;;;;;4964648;28;20625;-76
2021/05/19 00:17:20;;;;;;;9.23;5.50;;;4.30;99.90;;;;;;4965690;28;20312;-77
2021/05/19 00:19:46;;;;;;;12.40;6.57;;;4.20;99.90;;;;;;4969023;28;20622;-76
2021/05/19 00:22:12;;;;;;;12.37;7.03;;;4.20;99.90;;;;;;4967839;28;20300;-76
2021/05/19 00:24:40;;;;;;;13.43;7.03;;;4.20;99.90;;;;;;4966693;28;20267;-77
2021/05/19 00:27:06;;;;;;;14.10;7.53;;;4.10;99.90;;;;;;4967809;28;20258;-76
2021/05/19 00:29:33;;;;;;;13.67;7.73;;;4.10;99.90;;;;;;4961966;28;20252;-77
2021/05/19 00:31:59;;;;;;;16.63;7.77;;;4.10;99.90;;;;;;4962991;28;20268;-76
2021/05/19 00:34:26;;;;;;;12.83;7.10;;;4.00;99.90;;;;;;4966918;28;20661;-76
2021/05/19 00:36:52;;;;;;;18.20;7.70;;;4.00;99.90;;;;;;4968747;28;20257;-76
2021/05/19 00:39:18;;;;;;;18.33;8.37;;;4.00;99.90;;;;;;4963001;28;20212;-76
2021/05/19 00:41:46;;;;;;;14.57;8.03;;;4.00;99.90;;;;;;4965630;28;20616;-76
2021/05/19 00:44:17;;;;;;;24.70;9.23;;;4.00;99.90;;;;;;4965235;28;20289;-76
2021/05/19 00:46:44;;;;;;;17.20;8.23;;;4.00;99.90;;;;;;4961225;28;20226;-76
2021/05/19 00:49:11;;;;;;;13.57;7.63;;;4.00;99.90;;;;;;4967856;28;20261;-76
2021/05/19 00:51:39;;;;;;;14.70;8.53;;;4.10;99.90;;;;;;4964448;28;20236;-75
2021/05/19 00:54:05;;;;;;;13.43;7.87;;;4.10;99.90;;;;;;4967745;28;20261;-76
2021/05/19 00:56:31;;;;;;;12.43;7.93;;;4.10;99.90;;;;;;4969759;28;20283;-76
2021/05/19 00:59:01;;;;;;;16.20;8.10;;;4.20;99.90;;;;;;4965771;28;20225;-76
2021/05/19 01:01:33;;;;;;;14.87;8.10;;;4.20;99.90;;;;;;4965910;28;20303;-76
2021/05/19 01:04:00;;;;;;;21.17;8.33;;;4.20;99.90;;;;;;4973722;28;20221;-75
2021/05/19 01:06:31;;;;;;;14.83;8.00;;;4.20;99.90;;;;;;4990752;28;20222;-75
2021/05/19 01:11:42;;;;;;;15.47;8.87;;;4.20;99.90;;;;;;4967433;28;20316;-76
2021/05/19 01:14:09;;;;;;;17.07;8.80;;;4.20;99.90;;;;;;4967832;28;20209;-76
2021/05/19 01:16:36;;;;;;;15.07;8.23;;;4.30;99.90;;;;;;4964525;28;20239;-76
2021/05/19 01:19:03;;;;;;;17.40;8.37;;;4.20;99.90;;;;;;4963803;28;20296;-76
2021/05/19 01:21:30;;;;;;;15.23;8.47;;;4.20;99.90;;;;;;4971798;28;20291;-76
2021/05/19 01:23:58;;;;;;;14.37;8.00;;;4.20;99.90;;;;;;4962294;28;20237;-76
2021/05/19 01:26:24;;;;;;;19.43;8.63;;;4.20;99.90;;;;;;4968431;28;20229;-76
2021/05/19 01:28:51;;;;;;;18.50;8.90;;;4.30;99.90;;;;;;4968561;28;20759;-76
2021/05/19 01:31:17;;;;;;;17.87;9.63;;;4.20;99.90;;;;;;4966502;28;20229;-76
2021/05/19 01:33:48;;;;;;;23.03;9.60;;;4.20;99.90;;;;;;4970810;28;20727;-76
2021/05/19 01:36:15;;;;;;;22.23;9.70;;;4.10;99.90;;;;;;4965796;28;20723;-76
2021/05/19 01:38:42;;;;;;;17.90;9.57;;;4.10;99.90;;;;;;4960808;28;20838;-76
2021/05/19 01:41:09;;;;;;;23.20;9.53;;;4.10;99.90;;;;;;4961582;28;20299;-76
2021/05/19 01:43:38;;;;;;;19.47;9.23;;;4.10;99.90;;;;;;4959321;28;20293;-76
2021/05/19 01:46:06;;;;;;;19.87;9.10;;;4.10;99.90;;;;;;4964689;28;20785;-76
2021/05/19 01:48:34;;;;;;;22.23;9.93;;;4.20;99.90;;;;;;4964597;28;20654;-76
2021/05/19 01:51:02;;;;;;;20.43;10.13;;;4.30;99.90;;;;;;4962919;28;20224;-76
2021/05/19 01:53:29;;;;;;;22.33;10.80;;;4.30;99.90;;;;;;4965657;28;20208;-76
2021/05/19 01:55:56;;;;;;;20.00;10.30;;;4.30;99.90;;;;;;4968863;28;20934;-76
2021/05/19 01:58:23;;;;;;;19.50;9.03;;;4.40;99.90;;;;;;4963471;28;20217;-76
2021/05/19 02:00:49;;;;;;;20.20;10.17;;;4.40;99.90;;;;;;4963250;28;20240;-76
2021/05/19 02:03:19;;;;;;;21.53;10.50;;;4.40;99.90;;;;;;4964532;28;20296;-76
2021/05/19 02:05:46;;;;;;;22.30;10.53;;;4.40;99.90;;;;;;4961998;28;20316;-76
2021/05/19 02:08:13;;;;;;;21.17;10.23;;;4.40;99.90;;;;;;4995889;23;20227;-85
2021/05/19 02:10:42;;;;;;;19.20;9.80;;;4.30;99.90;;;;;;4981471;28;20241;-84
2021/05/19 02:16:32;;;;;;;18.33;9.63;;;4.40;99.90;;;;;;4981269;28;20212;-82
2021/05/19 02:18:59;;;;;;;19.20;9.80;;;4.40;99.90;;;;;;4988208;28;20225;-84
2021/05/19 02:21:25;;;;;;;19.63;9.83;;;4.50;99.90;;;;;;4980820;28;20256;-84
2021/05/19 02:23:55;;;;;;;29.33;11.07;;;4.50;99.90;;;;;;4983617;28;20581;-85
2021/05/19 02:26:22;;;;;;;23.53;10.27;;;4.50;99.90;;;;;;4981756;28;20213;-83
2021/05/19 02:29:16;;;;;;;26.17;11.37;;;4.60;99.90;;;;;;4981741;28;20272;-85
2021/05/19 02:31:45;;;;;;;22.90;10.57;;;4.60;99.90;;;;;;4972201;28;20234;-85
2021/05/19 02:34:12;;;;;;;24.63;11.43;;;4.60;99.90;;;;;;4993119;28;20220;-83
2021/05/19 02:40:01;;;;;;;21.87;11.43;;;4.70;99.90;;;;;;4974354;28;20208;-85
2021/05/19 02:42:28;;;;;;;25.10;11.10;;;4.80;99.90;;;;;;4981185;28;20245;-84
2021/05/19 02:44:54;;;;;;;20.40;10.90;;;4.80;99.90;;;;;;4972713;28;20233;-85
2021/05/19 02:47:22;;;;;;;22.13;11.47;;;4.80;99.90;;;;;;4977600;28;20240;-84
2021/05/19 02:49:48;;;;;;;22.07;11.33;;;4.80;99.90;;;;;;4972295;28;20234;-84
2021/05/19 02:52:18;;;;;;;24.03;11.00;;;4.90;99.90;;;;;;4982631;28;20233;-85
2021/05/19 02:54:44;;;;;;;20.57;10.40;;;4.90;99.90;;;;;;4977802;28;20210;-84
2021/05/19 02:57:11;;;;;;;21.90;10.90;;;4.90;99.90;;;;;;4972507;28;20206;-84
2021/05/19 02:59:37;;;;;;;20.13;10.80;;;5.00;99.90;;;;;;4975600;28;20234;-84
2021/05/19 03:02:04;;;;;;;22.10;10.60;;;5.00;99.90;;;;;;4978474;28;20209;-85
2021/05/19 03:04:31;;;;;;;20.93;10.67;;;5.10;99.90;;;;;;4975022;28;20224;-83
2021/05/19 03:06:58;;;;;;;18.60;10.40;;;5.10;99.90;;;;;;4993473;28;20218;-82
2021/05/19 03:09:27;;;;;;;18.03;10.13;;;5.10;99.90;;;;;;4995018;28;20202;-83
2021/05/19 03:11:54;;;;;;;18.17;10.27;;;5.10;99.90;;;;;;4998507;28;20221;-85
2021/05/19 03:14:21;;;;;;;20.27;10.60;;;5.20;99.90;;;;;;4989926;28;20201;-85
2021/05/19 03:16:47;;;;;;;20.80;11.33;;;5.20;99.90;;;;;;4983459;28;20202;-85
2021/05/19 03:19:14;;;;;;;21.00;11.00;;;5.10;99.90;;;;;;4969568;28;20245;-84
2021/05/19 03:21:41;;;;;;;21.90;10.63;;;5.10;99.90;;;;;;4979174;28;20559;-84
2021/05/19 03:24:08;;;;;;;18.70;10.13;;;5.20;99.90;;;;;;4976339;28;20209;-85
2021/05/19 03:26:35;;;;;;;19.40;10.43;;;5.20;99.90;;;;;;4970912;28;20210;-85
2021/05/19 03:29:02;;;;;;;16.33;9.67;;;5.20;99.90;;;;;;4968503;28;20590;-84
2021/05/19 03:31:28;;;;;;;22.90;11.27;;;5.20;99.90;;;;;;4983469;28;20224;-84
2021/05/19 03:33:55;;;;;;;20.53;10.27;;;5.30;99.90;;;;;;4973516;28;20290;-84
2021/05/19 03:36:21;;;;;;;17.70;9.80;;;5.30;99.90;;;;;;4968596;28;20848;-83
2021/05/19 03:38:48;;;;;;;21.53;10.70;;;5.40;99.90;;;;;;4973484;28;20202;-83
2021/05/19 03:41:15;;;;;;;18.40;10.43;;;5.50;99.90;;;;;;4972100;28;20217;-84
2021/05/19 03:43:42;;;;;;;17.90;10.03;;;5.50;99.90;;;;;;4976610;28;20217;-83
2021/05/19 03:46:08;;;;;;;18.77;10.13;;;5.50;99.90;;;;;;4973807;28;20197;-84
2021/05/19 03:48:35;;;;;;;20.00;10.23;;;5.50;99.90;;;;;;4972197;28;20213;-83
2021/05/19 03:51:01;;;;;;;18.37;10.47;;;5.60;99.90;;;;;;4976179;28;20221;-83
2021/05/19 03:53:27;;;;;;;18.70;10.40;;;5.70;99.90;;;;;;4972034;28;20292;-84
2021/05/19 03:55:55;;;;;;;19.73;10.63;;;5.70;99.90;;;;;;4973004;28;20288;-84
2021/05/19 03:58:21;;;;;;;16.77;9.67;;;5.70;99.90;;;;;;4971196;28;20264;-84
2021/05/19 04:00:48;;;;;;;19.33;10.23;;;5.70;99.90;;;;;;4982090;28;20628;-84
2021/05/19 04:03:15;;;;;;;16.93;9.27;;;5.80;99.90;;;;;;4968931;28;20229;-85
2021/05/19 04:05:42;;;;;;;17.50;8.50;;;5.80;99.90;;;;;;4970481;28;20205;-83
2021/05/19 04:08:09;;;;;;;20.70;9.30;;;5.90;99.90;;;;;;4973576;28;20234;-84
2021/05/19 04:10:36;;;;;;;17.70;10.23;;;5.90;99.90;;;;;;4980304;28;20225;-83
2021/05/19 04:13:05;;;;;;;15.67;9.60;;;5.90;99.90;;;;;;4978906;28;21166;-84
2021/05/19 04:15:33;;;;;;;20.43;9.33;;;5.90;99.90;;;;;;4972490;28;20705;-83
2021/05/19 04:18:00;;;;;;;17.33;9.90;;;6.00;99.90;;;;;;4975417;28;20206;-84
2021/05/19 04:20:30;;;;;;;17.00;9.50;;;6.00;99.90;;;;;;4980160;28;20725;-84
2021/05/19 04:22:56;;;;;;;19.33;9.70;;;6.10;99.90;;;;;;4984075;28;20222;-84
2021/05/19 04:25:23;;;;;;;16.53;9.17;;;6.20;99.90;;;;;;4982168;28;20233;-85
2021/05/19 04:27:50;;;;;;;16.33;10.00;;;6.20;99.90;;;;;;4979277;28;20356;-83
2021/05/19 04:30:20;;;;;;;16.63;9.63;;;6.20;99.90;;;;;;4976825;28;20273;-83
2021/05/19 04:32:46;;;;;;;18.20;9.83;;;6.30;99.90;;;;;;4980686;28;21118;-83
2021/05/19 04:35:14;;;;;;;15.90;9.13;;;6.30;99.90;;;;;;4980671;28;20709;-82
2021/05/19 04:37:41;;;;;;;16.50;9.80;;;6.40;99.90;;;;;;4979328;28;20213;-83
2021/05/19 04:40:11;;;;;;;16.53;9.80;;;6.40;99.90;;;;;;4978949;28;20221;-84
2021/05/19 04:42:37;;;;;;;15.43;8.87;;;6.40;99.90;;;;;;4977015;28;20283;-84
2021/05/19 04:45:05;;;;;;;15.97;9.23;;;6.50;99.90;;;;;;4988501;28;20221;-83
2021/05/19 04:47:33;;;;;;;17.83;10.23;;;6.50;99.90;;;;;;4981110;28;20205;-83
2021/05/19 04:49:59;;;;;;;17.47;10.30;;;6.50;99.90;;;;;;4985361;28;20205;-81
2021/05/19 04:52:26;;;;;;;17.23;10.30;;;6.60;99.90;;;;;;5001939;28;20217;-82
2021/05/19 04:54:52;;;;;;;16.67;8.77;;;6.60;99.90;;;;;;4999290;28;20178;-83
2021/05/19 04:57:19;;;;;;;16.27;9.60;;;6.60;99.90;;;;;;4999289;28;20204;-84
2021/05/19 04:59:45;;;;;;;17.17;9.97;;;6.50;99.90;;;;;;4979659;28;20309;-84
2021/05/19 05:02:12;;;;;;;21.20;10.27;;;6.50;99.90;;;;;;4974985;28;20197;-83
2021/05/19 05:04:39;;;;;;;17.80;9.60;;;6.50;99.90;;;;;;4979280;28;20248;-83
2021/05/19 05:07:05;;;;;;;18.63;10.17;;;6.50;99.90;;;;;;4982644;28;20251;-84
2021/05/19 05:09:32;;;;;;;16.90;9.53;;;6.60;99.90;;;;;;4977317;28;20948;-83
2021/05/19 05:11:59;;;;;;;20.70;10.00;;;6.60;99.90;;;;;;4981282;28;20735;-84
2021/05/19 05:14:28;;;;;;;18.53;10.87;;;6.70;99.90;;;;;;4985291;28;20224;-84
2021/05/19 05:16:55;;;;;;;16.67;10.13;;;6.70;99.90;;;;;;4988273;28;20244;-84
2021/05/19 05:19:21;;;;;;;18.90;10.50;;;6.80;99.90;;;;;;4987416;28;20233;-83
2021/05/19 05:21:49;;;;;;;20.57;10.67;;;6.80;99.90;;;;;;4979517;28;20244;-83
2021/05/19 05:24:15;;;;;;;19.10;10.50;;;6.80;99.90;;;;;;4976462;28;20349;-82
2021/05/19 05:26:42;;;;;;;20.67;10.27;;;6.90;99.90;;;;;;4982511;28;20672;-84
2021/05/19 05:29:08;;;;;;;21.10;10.80;;;6.90;99.90;;;;;;4982132;28;20233;-83
2021/05/19 05:31:34;;;;;;;18.87;10.67;;;7.00;99.90;;;;;;4973840;28;20261;-82
2021/05/19 05:34:01;;;;;;;20.10;11.20;;;7.00;99.90;;;;;;4976708;28;20244;-83
2021/05/19 05:36:27;;;;;;;22.90;12.37;;;7.00;99.90;;;;;;4983269;28;20281;-83
2021/05/19 05:38:55;;;;;;;18.07;10.67;;;7.00;99.90;;;;;;4981714;28;20213;-83
2021/05/19 05:41:21;;;;;;;20.67;11.10;;;7.10;99.90;;;;;;4979529;28;20705;-83
2021/05/19 05:43:47;;;;;;;18.87;11.17;;;7.20;99.90;;;;;;4978896;28;20213;-83
2021/05/19 05:46:14;;;;;;;21.47;10.87;;;7.30;99.90;;;;;;4979344;28;20212;-82
2021/05/19 05:48:42;;;;;;;22.27;11.63;;;7.40;99.90;;;;;;4983699;28;20356;-81
2021/05/19 05:51:08;;;;;;;20.20;11.10;;;7.50;99.90;;;;;;4979924;28;20228;-81
2021/05/19 05:53:35;;;;;;;21.73;11.53;;;7.60;99.90;;;;;;4975999;28;20226;-83
2021/05/19 05:56:02;;;;;;;20.77;11.40;;;7.80;99.90;;;;;;4978288;28;20269;-83
2021/05/19 05:58:29;;;;;;;18.70;10.37;;;7.90;99.90;;;;;;4974856;28;20265;-82
2021/05/19 06:00:55;;;;;;;20.00;11.00;;;8.10;99.90;;;;;;4976906;28;20316;-82
2021/05/19 06:03:21;;;;;;;20.60;11.20;;;8.30;99.90;;;;;;4975821;28;20297;-84
2021/05/19 06:05:48;;;;;;;22.10;10.83;;;8.60;99.90;;;;;;4980448;28;20248;-84
2021/05/19 06:08:14;;;;;;;19.77;10.57;;;8.80;99.90;;;;;;4973457;28;20214;-84
2021/05/19 06:10:41;;;;;;;18.67;11.20;;;9.00;99.90;;;;;;4973530;28;20698;-83
2021/05/19 06:13:08;;;;;;;19.90;11.20;;;9.00;99.90;;;;;;4981223;28;20289;-83
2021/05/19 06:15:34;;;;;;;21.13;11.63;;;9.00;99.90;;;;;;4978269;28;20201;-84
2021/05/19 06:18:01;;;;;;;23.90;12.80;;;9.30;99.90;;;;;;4970966;28;20220;-82
2021/05/19 06:20:28;;;;;;;21.97;12.87;;;9.40;99.90;;;;;;4973917;28;20650;-83
2021/05/19 06:22:54;;;;;;;29.77;13.07;;;9.40;99.90;;;;;;4980673;28;20293;-82
2021/05/19 06:25:22;;;;;;;24.83;13.67;;;9.40;99.90;;;;;;4974164;28;20282;-83
2021/05/19 06:27:49;;;;;;;26.00;13.37;;;9.50;99.90;;;;;;4980212;28;20244;-83
2021/05/19 06:30:17;;;;;;;20.93;12.43;;;9.40;99.90;;;;;;4967675;28;20329;-83
2021/05/19 06:32:43;;;;;;;25.97;13.03;;;9.40;99.90;;;;;;4976576;28;20316;-83
2021/05/19 06:35:10;;;;;;;30.10;13.73;;;9.40;99.90;;;;;;4987543;28;20185;-82
2021/05/19 06:37:37;;;;;;;29.07;13.37;;;9.50;99.90;;;;;;4999268;28;20217;-82
2021/05/19 06:40:04;;;;;;;22.03;12.23;;;9.50;99.90;;;;;;4998488;28;20229;-82
2021/05/19 06:42:31;;;;;;;23.60;12.30;;;9.60;99.90;;;;;;4997424;28;20232;-83
2021/05/19 06:44:57;;;;;;;24.43;12.93;;;9.60;99.90;;;;;;4983766;28;20209;-83
2021/05/19 06:47:25;;;;;;;24.60;12.80;;;9.60;99.90;;;;;;4971175;28;20732;-83
2021/05/19 06:49:52;;;;;;;27.13;13.87;;;9.60;99.90;;;;;;4982143;28;20249;-83
2021/05/19 06:52:19;;;;;;;23.87;13.43;;;9.80;99.90;;;;;;4976797;28;21768;-83
2021/05/19 06:54:45;;;;;;;23.87;13.63;;;10.00;99.90;;;;;;4977555;28;20205;-83
2021/05/19 06:57:11;;;;;;;26.63;13.60;;;10.20;99.90;;;;;;4970258;28;20698;-83
2021/05/19 06:59:38;;;;;;;29.93;14.73;;;10.30;99.90;;;;;;4972767;28;20260;-83
2021/05/19 07:02:04;;;;;;;24.60;14.33;;;10.40;99.90;;;;;;4974693;28;20643;-83
2021/05/19 07:04:32;;;;;;;24.80;14.13;;;10.50;99.90;;;;;;4983391;28;20225;-83
2021/05/19 07:06:58;;;;;;;26.47;13.53;;;10.90;99.90;;;;;;4981841;28;20217;-83
2021/05/19 07:09:47;;;;;;;27.43;13.90;;;11.10;99.90;;;;;;4975813;28;20271;-83
2021/05/19 07:12:14;;;;;;;27.90;14.07;;;11.40;99.90;;;;;;4975909;28;20226;-83
2021/05/19 07:14:46;;;;;;;25.70;13.80;;;11.50;99.90;;;;;;4978078;28;20225;-83
2021/05/19 07:17:13;;;;;;;25.50;13.97;;;11.40;99.90;;;;;;4975368;28;20661;-83
2021/05/19 07:19:40;;;;;;;22.97;13.00;;;11.30;99.90;;;;;;4974205;28;20775;-83
2021/05/19 07:22:07;;;;;;;26.57;13.63;;;11.50;99.90;;;;;;4978225;28;20205;-84
2021/05/19 07:24:34;;;;;;;22.47;13.87;;;11.70;99.90;;;;;;4975268;28;20233;-83
2021/05/19 07:27:00;;;;;;;24.73;13.47;;;12.10;99.90;;;;;;4971548;28;20237;-82
2021/05/19 07:29:27;;;;;;;22.93;13.10;;;12.30;99.90;;;;;;4974132;28;20245;-82
2021/05/19 07:31:53;;;;;;;24.63;13.83;;;12.50;99.90;;;;;;4979590;28;20244;-82
2021/05/19 07:34:20;;;;;;;27.00;14.67;;;12.60;99.90;;;;;;4984354;28;20224;-83
2021/05/19 07:36:47;;;;;;;28.20;15.10;;;12.70;99.90;;;;;;4984851;28;20220;-83
2021/05/19 07:39:14;;;;;;;28.53;14.60;;;12.80;99.90;;;;;;4975655;28;20206;-82
2021/05/19 07:41:41;;;;;;;25.60;14.30;;;13.10;99.90;;;;;;4979371;28;20291;-83
2021/05/19 07:44:08;;;;;;;24.97;14.47;;;13.70;99.90;;;;;;4980081;28;20208;-83
2021/05/19 07:46:35;;;;;;;27.10;15.00;;;14.50;99.90;;;;;;4973938;28;20217;-86
2021/05/19 07:49:01;;;;;;;25.83;14.80;;;15.00;99.90;;;;;;4978096;28;20225;-83
2021/05/19 07:51:28;;;;;;;26.37;14.40;;;15.20;99.90;;;;;;4971272;28;20293;-84
2021/05/19 07:54:14;;;;;;;30.33;16.07;;;14.70;99.90;;;;;;5109853;27;20528;-75
2021/05/19 07:56:43;;;;;;;26.60;15.97;;;14.00;99.90;;;;;;5108109;27;20225;-76
2021/05/19 07:59:11;;;;;;;29.43;15.13;;;13.50;99.90;;;;;;5110324;27;20313;-76
2021/05/19 08:02:01;;;;;;;27.60;15.77;;;13.20;99.90;;;;;;5112241;27;20224;-76
2021/05/19 08:04:28;;;;;;;31.00;16.03;;;12.70;99.90;;;;;;5109251;27;20193;-76
2021/05/19 08:06:55;;;;;;;29.27;15.40;;;12.80;99.90;;;;;;5109881;27;20247;-76
2021/05/19 08:09:22;;;;;;;26.83;14.90;;;13.00;99.90;;;;;;5108814;28;20220;-76
2021/05/19 08:11:49;;;;;;;22.80;14.27;;;13.00;99.90;;;;;;5117356;28;20204;-76
2021/05/19 08:14:17;;;;;;;20.70;13.37;;;13.60;99.90;;;;;;5106548;27;20201;-77
2021/05/19 08:16:43;;;;;;;19.07;12.00;;;15.00;99.90;;;;;;5108302;27;20224;-77
2021/05/19 08:19:10;;;;;;;18.50;11.90;;;16.50;99.90;;;;;;5111287;27;20295;-77
2021/05/19 08:21:37;;;;;;;21.93;11.37;;;18.00;99.90;;;;;;5115180;27;20634;-76
2021/05/19 08:24:05;;;;;;;21.70;11.50;;;19.30;99.90;;;;;;5107536;27;20255;-77
2021/05/19 08:26:32;;;;;;;19.63;11.90;;;19.40;99.90;;;;;;5111470;27;20741;-77
2021/05/19 08:28:59;;;;;;;14.33;10.17;;;20.10;99.90;;;;;;5105684;27;20588;-76
2021/05/19 08:31:25;;;;;;;16.43;10.60;;;20.90;99.90;;;;;;5104473;27;20284;-78
2021/05/19 08:33:52;;;;;;;17.57;10.40;;;20.40;99.90;;;;;;5107625;27;20725;-76
2021/05/19 08:36:19;;;;;;;15.57;10.80;;;19.30;99.90;;;;;;5104653;27;20213;-77
2021/05/19 08:38:45;;;;;;;16.37;10.67;;;18.30;99.90;;;;;;5104355;27;20239;-76
2021/05/19 08:41:12;;;;;;;13.77;9.50;;;17.80;99.90;;;;;;5105281;27;20235;-76
2021/05/19 08:43:39;;;;;;;13.13;8.97;;;18.10;99.90;;;;;;5108769;27;20219;-77
2021/05/19 08:46:07;;;;;;;11.60;8.27;;;18.70;99.90;;;;;;5107304;28;20312;-77
2021/05/19 08:48:38;;;;;;;9.90;7.47;;;19.30;99.90;;;;;;5105604;27;20262;-77
2021/05/19 08:51:06;;;;;;;11.40;7.47;;;20.00;99.90;;;;;;5109097;27;20212;-77
2021/05/19 08:53:34;;;;;;;8.97;6.53;;;20.80;99.90;;;;;;5108520;27;20314;-77
2021/05/19 08:56:06;;;;;;;10.03;6.90;;;21.20;99.90;;;;;;5107206;27;20253;-77
2021/05/19 08:58:33;;;;;;;9.23;6.50;;;21.40;99.90;;;;;;5113456;27;20208;-77
2021/05/19 09:01:01;;;;;;;10.93;6.33;;;22.50;99.90;;;;;;5119550;27;20229;-77
2021/05/19 09:03:28;;;;;;;10.67;6.07;;;23.10;99.90;;;;;;5115199;27;20208;-75
2021/05/19 09:05:54;;;;;;;8.13;5.73;;;23.50;99.90;;;;;;5097326;28;20955;-79
2021/05/19 09:08:21;;;;;;;8.67;5.83;;;22.10;99.90;;;;;;5097705;28;20236;-75
2021/05/19 09:10:59;;;;;;;8.13;5.70;;;20.20;99.90;;;;;;5095894;28;20761;-75
2021/05/19 09:13:33;;;;;;;10.73;5.73;;;18.50;99.90;;;;;;5093677;28;20213;-75
2021/05/19 09:16:01;;;;;;;10.67;6.33;;;18.20;99.90;;;;;;5093343;28;20233;-75
2021/05/19 09:18:46;;;;;;;8.83;5.97;;;17.90;99.90;;;;;;5103798;27;20244;-75
2021/05/19 09:21:36;;;;;;;11.17;5.83;;;17.30;99.90;;;;;;5095849;27;20284;-75
2021/05/19 09:24:05;;;;;;;12.87;6.13;;;16.90;99.90;;;;;;5097416;27;20193;-75
2021/05/19 09:26:32;;;;;;;10.03;5.17;;;16.50;99.90;;;;;;5096843;27;20286;-75
2021/05/19 09:29:20;;;;;;;10.20;5.30;;;16.40;99.90;;;;;;5094679;28;20580;-75
2021/05/19 09:31:55;;;;;;;7.83;4.63;;;16.60;99.90;;;;;;5092289;28;20658;-75
2021/05/19 09:34:23;;;;;;;8.03;4.17;;;16.90;99.90;;;;;;5095427;28;21090;-75
2021/05/19 09:36:49;;;;;;;7.03;4.20;;;16.60;99.90;;;;;;5097284;28;20683;-75
2021/05/19 09:39:15;;;;;;;7.67;4.13;;;16.50;99.90;;;;;;5093583;27;20804;-75
2021/05/19 09:41:42;;;;;;;9.17;3.40;;;16.40;99.90;;;;;;5093271;28;20731;-75
2021/05/19 09:44:11;;;;;;;6.03;3.30;;;16.80;99.90;;;;;;5090588;27;20197;-75
2021/05/19 09:46:45;;;;;;;6.00;3.33;;;16.50;99.90;;;;;;5094526;28;20635;-75
2021/05/19 09:49:16;;;;;;;6.67;3.37;;;16.60;99.90;;;;;;5093453;27;20239;-75
2021/05/19 09:51:44;;;;;;;6.27;2.90;;;16.90;99.90;;;;;;5091869;28;20558;-75
2021/05/19 09:54:29;;;;;;;6.90;2.63;;;16.80;99.90;;;;;;5094158;27;20225;-75
2021/05/19 09:56:58;;;;;;;6.17;2.40;;;16.60;99.90;;;;;;5101696;27;20225;-74
2021/05/19 09:59:24;;;;;;;4.60;2.37;;;16.30;99.90;;;;;;5096555;28;20298;-74
2021/05/19 10:01:52;;;;;;;7.97;1.97;;;15.90;99.90;;;;;;5095094;28;21395;-74
2021/05/19 10:04:22;;;;;;;4.37;1.60;;;16.00;99.90;;;;;;5092913;28;20229;-74
2021/05/19 10:06:49;;;;;;;2.60;1.50;;;16.40;99.90;;;;;;5094038;27;20225;-75
2021/05/19 10:09:16;;;;;;;5.03;1.70;;;16.20;99.90;;;;;;5102833;28;20686;-75
2021/05/19 10:11:44;;;;;;;3.03;1.40;;;16.50;99.90;;;;;;5113141;28;20220;-73
2021/05/19 10:14:13;;;;;;;3.60;1.40;;;16.80;99.90;;;;;;5099918;28;20224;-73
2021/05/19 10:16:43;;;;;;;4.90;1.40;;;16.90;99.90;;;;;;5091071;28;20286;-75
2021/05/19 10:19:13;;;;;;;3.23;1.33;;;17.00;99.90;;;;;;5095573;28;20205;-74
2021/05/19 10:21:41;;;;;;;1.93;1.07;;;16.60;99.90;;;;;;5090671;28;20237;-74
2021/05/19 10:24:10;;;;;;;6.03;1.40;;;16.40;99.90;;;;;;5089355;28;20197;-75
2021/05/19 10:27:04;;;;;;;8.03;1.50;;;16.30;99.90;;;;;;5089892;27;20601;-74
2021/05/19 10:29:50;;;;;;;4.50;1.47;;;16.40;99.90;;;;;;5091309;27;20625;-74
2021/05/19 10:32:33;;;;;;;2.63;1.37;;;16.60;99.90;;;;;;5093330;27;20232;-74
2021/05/19 10:35:03;;;;;;;2.27;1.40;;;17.00;99.90;;;;;;5092182;28;20213;-74
2021/05/19 10:37:50;;;;;;;4.17;1.50;;;17.30;99.90;;;;;;5089067;27;20240;-74
2021/05/19 10:40:30;;;;;;;3.47;1.20;;;17.50;99.90;;;;;;5088855;28;20210;-74
2021/05/19 10:42:58;;;;;;;3.20;1.10;;;17.50;99.90;;;;;;5092318;27;20205;-75
2021/05/19 10:45:25;;;;;;;2.40;0.90;;;17.50;99.90;;;;;;5092239;27;20294;-74
2021/05/19 10:47:52;;;;;;;2.37;1.13;;;17.50;99.90;;;;;;5092486;28;20631;-74
2021/05/19 10:50:25;;;;;;;3.50;1.27;;;17.60;99.90;;;;;;5094148;27;20205;-75
2021/05/19 10:58:49;;;;;;;3.00;1.10;;;17.40;99.90;;;;;;5091789;27;20501;-74
2021/05/19 11:01:16;;;;;;;4.87;1.40;;;17.30;99.90;;;;;;5090365;28;20271;-74
2021/05/19 11:04:13;;;;;;;3.93;1.30;;;17.10;99.90;;;;;;5091312;28;20251;-74
2021/05/19 11:07:04;;;;;;;5.30;1.37;;;17.40;99.90;;;;;;5096176;27;20217;-74
2021/05/19 11:09:33;;;;;;;5.60;1.30;;;17.40;99.90;;;;;;5097776;28;20212;-74
2021/05/19 11:12:37;;;;;;;3.17;1.17;;;17.50;99.90;;;;;;5088847;28;20213;-74
2021/05/19 11:15:46;;;;;;;1.77;0.80;;;17.60;99.90;;;;;;5089995;28;20651;-74
2021/05/19 11:18:21;;;;;;;2.97;1.07;;;17.20;99.90;;;;;;5102140;28;20240;-73
2021/05/19 11:20:48;;;;;;;7.00;0.97;;;16.80;99.90;;;;;;5110144;28;20193;-74
2021/05/19 11:23:16;;;;;;;5.03;0.90;;;17.10;99.90;;;;;;5097360;28;20287;-75
2021/05/19 11:25:44;;;;;;;2.87;1.07;;;17.20;99.90;;;;;;5091908;28;20355;-77
2021/05/19 11:28:12;;;;;;;7.70;1.20;;;17.20;99.90;;;;;;5095655;27;20207;-75
2021/05/19 11:30:39;;;;;;;3.07;0.90;;;17.20;99.90;;;;;;5096475;28;20193;-74
2021/05/19 11:33:07;;;;;;;3.40;1.10;;;17.10;99.90;;;;;;5094482;27;20225;-74
2021/05/19 11:35:34;;;;;;;3.67;1.00;;;16.70;99.90;;;;;;5094897;28;20243;-75
2021/05/19 11:38:03;;;;;;;1.30;0.80;;;16.40;99.90;;;;;;5097325;28;20236;-74
2021/05/19 11:40:38;;;;;;;3.17;0.90;;;16.10;99.90;;;;;;5094782;28;20662;-75
2021/05/19 11:43:05;;;;;;;1.57;0.93;;;16.10;99.90;;;;;;5096802;28;20590;-74
2021/05/19 11:45:32;;;;;;;3.67;1.10;;;16.00;99.90;;;;;;5094417;27;20248;-75
2021/05/19 11:47:59;;;;;;;4.90;0.90;;;16.10;99.90;;;;;;5095495;28;20243;-74
2021/05/19 11:50:27;;;;;;;3.43;0.90;;;16.60;99.90;;;;;;5090972;28;20632;-74
2021/05/19 11:52:57;;;;;;;2.13;0.97;;;16.90;99.90;;;;;;5091078;28;20232;-75
2021/05/19 11:55:36;;;;;;;2.57;0.90;;;17.30;99.90;;;;;;5095073;28;20208;-75
2021/05/19 11:58:09;;;;;;;3.50;1.00;;;17.70;99.90;;;;;;5096644;28;20217;-75
2021/05/19 12:00:38;;;;;;;3.30;0.67;;;17.60;99.90;;;;;;5098627;28;20208;-74
2021/05/19 12:03:05;;;;;;;3.17;0.60;;;17.40;99.90;;;;;;5097885;28;20205;-75
2021/05/19 12:05:51;;;;;;;1.27;0.60;;;17.40;99.90;;;;;;5098091;28;20228;-75
2021/05/19 12:08:19;;;;;;;1.87;0.67;;;17.30;99.90;;;;;;5091342;28;20685;-75
2021/05/19 12:10:46;;;;;;;5.07;0.70;;;17.30;99.90;;;;;;5091237;28;20201;-75
2021/05/19 12:13:15;;;;;;;3.57;0.77;;;17.40;99.90;;;;;;5093154;28;20236;-76
2021/05/19 12:15:46;;;;;;;1.87;0.60;;;17.30;99.90;;;;;;5093051;28;20253;-75
2021/05/19 12:18:13;;;;;;;3.43;1.13;;;17.60;99.90;;;;;;5095615;28;20683;-74
2021/05/19 12:20:39;;;;;;;1.73;0.60;;;17.70;99.90;;;;;;5091771;28;20399;-76
2021/05/19 12:23:06;;;;;;;1.50;0.60;;;17.80;99.90;;;;;;5094915;28;20247;-75
2021/05/19 12:25:34;;;;;;;2.97;0.87;;;17.40;99.90;;;;;;5092008;28;20232;-75
2021/05/19 12:28:03;;;;;;;2.57;0.70;;;17.40;99.90;;;;;;5104813;28;20205;-74
2021/05/19 12:30:42;;;;;;;1.77;0.47;;;17.20;99.90;;;;;;5119504;28;20197;-77
2021/05/19 12:33:10;;;;;;;3.33;0.70;;;17.40;99.90;;;;;;5093535;28;20260;-75
2021/05/19 12:35:42;;;;;;;2.40;0.70;;;17.70;99.90;;;;;;5091069;28;20248;-75
2021/05/19 12:38:09;;;;;;;1.07;0.67;;;18.00;99.90;;;;;;5097848;28;20205;-75
2021/05/19 12:40:36;;;;;;;3.03;0.70;;;17.60;99.90;;;;;;5095921;27;20205;-74
2021/05/19 12:43:04;;;;;;;2.07;0.73;;;17.90;99.90;;;;;;5101677;27;20284;-75
2021/05/19 12:45:35;;;;;;;2.57;0.60;;;18.20;99.90;;;;;;5097246;28;21015;-75
2021/05/19 12:48:06;;;;;;;2.33;0.60;;;17.90;99.90;;;;;;5096825;28;20748;-75
2021/05/19 12:50:41;;;;;;;3.80;0.87;;;17.90;99.90;;;;;;5094757;28;20288;-75
2021/05/19 12:53:08;;;;;;;1.53;0.70;;;17.80;99.90;;;;;;5099109;27;20228;-75
2021/05/19 12:55:34;;;;;;;1.63;0.53;;;17.80;99.90;;;;;;5095172;28;20252;-75
2021/05/19 12:58:08;;;;;;;4.90;0.90;;;18.00;99.90;;;;;;5095730;28;20269;-75
2021/05/19 13:00:52;;;;;;;1.33;0.50;;;18.10;99.90;;;;;;5096823;28;20721;-75
2021/05/19 13:03:34;;;;;;;2.63;0.93;;;18.00;99.90;;;;;;5092712;28;20655;-77